createdAt,value
2022-11-19T00:00:52.889Z,8.54
2022-11-19T00:01:52.917Z,8.50
2022-11-19T00:02:52.870Z,8.50
2022-11-19T00:03:53.409Z,8.52
2022-11-19T00:04:52.852Z,8.54
2022-11-19T00:05:52.880Z,8.55
2022-11-19T00:06:52.831Z,8.55
2022-11-19T00:07:52.820Z,8.57
2022-11-19T00:08:52.801Z,8.58
2022-11-19T00:09:52.800Z,8.58
2022-11-19T00:10:52.799Z,8.58
2022-11-19T00:11:52.772Z,8.58
2022-11-19T00:12:52.763Z,8.60
2022-11-19T00:13:52.754Z,8.58
2022-11-19T00:14:52.741Z,8.61
2022-11-19T00:15:52.765Z,8.58
2022-11-19T00:16:52.721Z,8.58
2022-11-19T00:17:52.716Z,8.60
2022-11-19T00:18:52.703Z,8.61
2022-11-19T00:19:52.691Z,8.63
2022-11-19T00:20:52.674Z,8.63
2022-11-19T00:21:52.682Z,8.63
2022-11-19T00:22:52.653Z,8.61
2022-11-19T00:23:52.644Z,8.61
2022-11-19T00:24:52.633Z,8.63
2022-11-19T00:25:52.623Z,8.61
2022-11-19T00:26:52.623Z,8.63
2022-11-19T00:27:52.605Z,8.63
2022-11-19T00:28:52.591Z,8.64
2022-11-19T00:29:52.587Z,8.64
2022-11-19T00:30:52.572Z,8.67
2022-11-19T00:31:52.575Z,8.70
2022-11-19T00:32:52.564Z,8.68
2022-11-19T00:33:52.543Z,8.68
2022-11-19T00:34:52.543Z,8.68
2022-11-19T00:35:52.525Z,8.70
2022-11-19T00:36:52.504Z,8.68
2022-11-19T00:37:52.496Z,8.70
2022-11-19T00:38:52.488Z,8.71
2022-11-19T00:39:52.504Z,8.71
2022-11-19T00:40:52.464Z,8.73
2022-11-19T00:41:52.456Z,8.73
2022-11-19T00:42:52.446Z,8.75
2022-11-19T00:43:52.453Z,8.71
2022-11-19T00:44:52.420Z,8.71
2022-11-19T00:45:52.426Z,8.71
2022-11-19T00:46:52.397Z,8.67
2022-11-19T00:47:52.386Z,8.68
2022-11-19T00:48:52.386Z,8.71
2022-11-19T00:49:52.384Z,8.67
2022-11-19T00:50:52.355Z,8.64
2022-11-19T00:51:52.347Z,8.67
2022-11-19T00:52:52.347Z,8.68
2022-11-19T00:53:52.327Z,8.67
2022-11-19T00:54:52.307Z,8.68
2022-11-19T00:55:52.306Z,8.67
2022-11-19T00:56:52.288Z,8.67
2022-11-19T00:57:52.287Z,8.67
2022-11-19T00:58:52.274Z,8.65
2022-11-19T00:59:52.258Z,8.65
2022-11-19T01:00:52.277Z,8.64
2022-11-19T01:01:52.250Z,8.64
2022-11-19T01:02:52.224Z,8.65
2022-11-19T01:03:52.236Z,8.63
2022-11-19T01:04:52.198Z,8.63
2022-11-19T01:05:52.199Z,8.60
2022-11-19T01:06:52.205Z,8.60
2022-11-19T01:07:52.178Z,8.58
2022-11-19T01:08:52.158Z,8.57
2022-11-19T01:09:52.149Z,8.55
2022-11-19T01:10:52.158Z,8.57
2022-11-19T01:11:52.129Z,8.57
2022-11-19T01:12:52.117Z,8.55
2022-11-19T01:13:52.120Z,8.55
2022-11-19T01:14:52.090Z,8.57
2022-11-19T01:15:52.118Z,8.55
2022-11-19T01:16:52.078Z,8.55
2022-11-19T01:17:52.071Z,8.55
2022-11-19T01:18:52.072Z,8.57
2022-11-19T01:19:52.041Z,8.55
2022-11-19T01:20:52.029Z,8.55
2022-11-19T01:21:52.020Z,8.50
2022-11-19T01:22:52.010Z,8.52
2022-11-19T01:23:52.019Z,8.50
2022-11-19T01:24:51.990Z,8.50
2022-11-19T01:25:52.002Z,8.50
2022-11-19T01:26:51.969Z,8.49
2022-11-19T01:27:51.961Z,8.49
2022-11-19T01:28:51.950Z,8.49
2022-11-19T01:29:51.956Z,8.49
2022-11-19T01:30:51.922Z,8.49
2022-11-19T01:31:51.914Z,8.49
2022-11-19T01:32:51.901Z,8.49
2022-11-19T01:33:51.919Z,8.46
2022-11-19T01:34:51.890Z,8.47
2022-11-19T01:35:51.881Z,8.47
2022-11-19T01:36:51.865Z,8.46
2022-11-19T01:37:51.853Z,8.46
2022-11-19T01:38:51.914Z,8.45
2022-11-19T01:39:51.832Z,8.43
2022-11-19T01:40:51.812Z,8.42
2022-11-19T01:41:51.802Z,8.42
2022-11-19T01:42:51.793Z,8.39
2022-11-19T01:43:51.783Z,8.37
2022-11-19T01:44:51.783Z,8.32
2022-11-19T01:45:51.763Z,8.31
2022-11-19T01:46:51.761Z,8.28
2022-11-19T01:47:51.745Z,8.24
2022-11-19T01:48:51.751Z,8.24
2022-11-19T01:49:51.731Z,8.22
2022-11-19T01:50:51.706Z,8.20
2022-11-19T01:51:51.715Z,8.13
2022-11-19T01:52:51.692Z,8.17
2022-11-19T01:53:51.685Z,8.13
2022-11-19T01:54:51.684Z,8.10
2022-11-19T01:55:51.654Z,8.10
2022-11-19T01:56:51.645Z,8.09
2022-11-19T01:57:51.656Z,8.06
2022-11-19T01:58:51.623Z,8.07
2022-11-19T01:59:51.615Z,8.07
2022-11-19T02:00:51.596Z,8.07
2022-11-19T02:01:51.597Z,8.09
2022-11-19T02:02:51.596Z,8.07
2022-11-19T02:03:51.588Z,8.07
2022-11-19T02:04:51.561Z,8.09
2022-11-19T02:05:51.547Z,8.07
2022-11-19T02:06:51.536Z,8.07
2022-11-19T02:07:51.546Z,8.07
2022-11-19T02:08:51.564Z,8.09
2022-11-19T02:09:51.507Z,8.10
2022-11-19T02:10:51.517Z,8.12
2022-11-19T02:11:51.487Z,8.10
2022-11-19T02:12:51.477Z,8.10
2022-11-19T02:13:51.465Z,8.09
2022-11-19T02:14:54.782Z,8.06
2022-11-19T02:15:51.439Z,8.07
2022-11-19T02:16:51.447Z,8.09
2022-11-19T02:17:51.418Z,8.04
2022-11-19T02:18:51.408Z,8.04
2022-11-19T02:19:51.403Z,8.02
2022-11-19T02:20:51.580Z,8.00
2022-11-19T02:21:51.382Z,7.96
2022-11-19T02:22:51.368Z,7.95
2022-11-19T02:23:51.356Z,7.94
2022-11-19T02:24:51.349Z,7.92
2022-11-19T02:25:51.339Z,7.92
2022-11-19T02:26:51.349Z,7.91
2022-11-19T02:27:51.308Z,7.89
2022-11-19T02:28:51.311Z,7.91
2022-11-19T02:29:51.289Z,7.92
2022-11-19T02:30:51.279Z,7.89
2022-11-19T02:31:51.280Z,7.88
2022-11-19T02:32:51.262Z,7.88
2022-11-19T02:33:51.249Z,7.89
2022-11-19T02:34:51.239Z,7.91
2022-11-19T02:35:51.233Z,7.89
2022-11-19T02:36:51.237Z,7.89
2022-11-19T02:37:51.201Z,7.91
2022-11-19T02:38:51.210Z,7.89
2022-11-19T02:39:51.183Z,7.89
2022-11-19T02:40:51.179Z,7.88
2022-11-19T02:41:51.177Z,7.88
2022-11-19T02:42:51.156Z,7.88
2022-11-19T02:43:51.139Z,7.88
2022-11-19T02:44:51.130Z,7.86
2022-11-19T02:45:51.129Z,7.89
2022-11-19T02:46:51.118Z,7.91
2022-11-19T02:47:51.088Z,7.89
2022-11-19T02:48:51.070Z,7.92
2022-11-19T02:49:51.077Z,7.91
2022-11-19T02:50:51.067Z,7.92
2022-11-19T02:51:51.047Z,7.92
2022-11-19T02:52:51.038Z,7.94
2022-11-19T02:53:51.028Z,7.95
2022-11-19T02:54:51.008Z,7.95
2022-11-19T02:55:51.029Z,7.96
2022-11-19T02:56:50.998Z,7.99
2022-11-19T02:57:50.989Z,8.00
2022-11-19T02:58:50.968Z,8.00
2022-11-19T02:59:50.968Z,8.00
2022-11-19T03:00:50.978Z,8.03
2022-11-19T03:01:50.979Z,8.02
2022-11-19T03:02:50.927Z,8.03
2022-11-19T03:03:50.932Z,8.06
2022-11-19T03:04:50.909Z,8.06
2022-11-19T03:05:50.957Z,8.07
2022-11-19T03:06:50.879Z,8.07
2022-11-19T03:07:50.881Z,8.07
2022-11-19T03:08:50.869Z,8.10
2022-11-19T03:09:50.859Z,8.10
2022-11-19T03:10:50.840Z,8.12
2022-11-19T03:11:50.833Z,8.12
2022-11-19T03:12:50.812Z,8.12
2022-11-19T03:13:50.828Z,8.13
2022-11-19T03:14:50.809Z,8.14
2022-11-19T03:15:50.788Z,8.14
2022-11-19T03:16:50.782Z,8.17
2022-11-19T03:17:50.771Z,8.14
2022-11-19T03:18:50.761Z,8.14
2022-11-19T03:19:50.769Z,8.13
2022-11-19T03:20:50.730Z,8.14
2022-11-19T03:21:50.750Z,8.17
2022-11-19T03:22:50.720Z,8.17
2022-11-19T03:23:50.701Z,8.17
2022-11-19T03:24:50.744Z,8.17
2022-11-19T03:25:50.682Z,8.13
2022-11-19T03:26:50.678Z,8.13
2022-11-19T03:27:50.671Z,8.14
2022-11-19T03:28:50.668Z,8.14
2022-11-19T03:29:50.645Z,8.14
2022-11-19T03:30:50.649Z,8.14
2022-11-19T03:31:50.634Z,8.14
2022-11-19T03:32:50.613Z,8.14
2022-11-19T03:33:50.642Z,8.17
2022-11-19T03:34:50.581Z,8.14
2022-11-19T03:35:50.603Z,8.17
2022-11-19T03:36:50.577Z,8.14
2022-11-19T03:37:50.572Z,8.17
2022-11-19T03:38:50.545Z,8.18
2022-11-19T03:39:50.552Z,8.17
2022-11-19T03:40:50.534Z,8.17
2022-11-19T03:41:50.511Z,8.17
2022-11-19T03:42:50.522Z,8.20
2022-11-19T03:43:50.494Z,8.20
2022-11-19T03:44:50.493Z,8.20
2022-11-19T03:45:50.493Z,8.18
2022-11-19T03:46:50.463Z,8.20
2022-11-19T03:47:50.447Z,8.21
2022-11-19T03:48:50.453Z,8.20
2022-11-19T03:49:50.444Z,8.22
2022-11-19T03:50:50.425Z,8.21
2022-11-19T03:51:50.414Z,8.22
2022-11-19T03:52:50.404Z,8.22
2022-11-19T03:53:50.396Z,8.25
2022-11-19T03:54:50.375Z,8.27
2022-11-19T03:55:50.386Z,8.27
2022-11-19T03:56:50.345Z,8.27
2022-11-19T03:57:50.364Z,8.29
2022-11-19T03:58:50.329Z,8.28
2022-11-19T03:59:50.335Z,8.28
2022-11-19T04:00:50.305Z,8.28
2022-11-19T04:01:50.395Z,8.29
2022-11-19T04:02:50.307Z,8.31
2022-11-19T04:03:50.417Z,8.31
2022-11-19T04:04:50.278Z,8.32
2022-11-19T04:05:50.257Z,8.34
2022-11-19T04:06:50.244Z,8.34
2022-11-19T04:07:50.286Z,8.34
2022-11-19T04:08:50.217Z,8.36
2022-11-19T04:09:50.213Z,8.37
2022-11-19T04:10:50.198Z,8.34
2022-11-19T04:12:22.356Z,8.36
2022-11-19T04:13:22.345Z,8.32
2022-11-19T04:14:22.325Z,8.29
2022-11-19T04:15:22.318Z,8.31
2022-11-19T04:16:22.314Z,8.31
2022-11-19T04:17:22.294Z,8.31
2022-11-19T04:18:22.279Z,8.32
2022-11-19T04:19:22.420Z,8.34
2022-11-19T04:20:22.264Z,8.32
2022-11-19T04:21:22.236Z,8.36
2022-11-19T04:22:22.235Z,8.34
2022-11-19T04:23:22.215Z,8.36
2022-11-19T04:24:22.223Z,8.34
2022-11-19T04:25:22.215Z,8.34
2022-11-19T04:26:22.195Z,8.32
2022-11-19T04:27:22.175Z,8.36
2022-11-19T04:28:22.165Z,8.36
2022-11-19T04:29:22.397Z,8.34
2022-11-19T04:30:22.162Z,8.36
2022-11-19T04:31:22.166Z,8.36
2022-11-19T04:32:22.117Z,8.36
2022-11-19T04:33:22.115Z,8.37
2022-11-19T04:34:22.099Z,8.39
2022-11-19T04:35:22.127Z,8.42
2022-11-19T04:36:22.096Z,8.42
2022-11-19T04:37:22.098Z,8.40
2022-11-19T04:38:22.056Z,8.42
2022-11-19T04:39:22.352Z,8.40
2022-11-19T04:40:22.047Z,8.40
2022-11-19T04:41:22.044Z,8.42
2022-11-19T04:42:22.043Z,8.43
2022-11-19T04:43:22.019Z,8.45
2022-11-19T04:44:22.009Z,8.45
2022-11-19T04:45:21.989Z,8.45
2022-11-19T04:46:21.987Z,8.45
2022-11-19T04:47:21.977Z,8.46
2022-11-19T04:48:21.967Z,8.45
2022-11-19T04:49:22.244Z,8.46
2022-11-19T04:50:21.958Z,8.46
2022-11-19T04:51:21.929Z,8.46
2022-11-19T04:52:21.910Z,8.47
2022-11-19T04:53:21.918Z,8.47
2022-11-19T04:54:21.898Z,8.47
2022-11-19T04:55:21.901Z,8.47
2022-11-19T04:56:21.858Z,8.47
2022-11-19T04:57:21.869Z,8.46
2022-11-19T04:58:21.858Z,8.47
2022-11-19T04:59:22.161Z,8.49
2022-11-19T05:00:21.829Z,8.47
2022-11-19T05:01:21.876Z,8.47
2022-11-19T05:02:21.817Z,8.47
2022-11-19T05:03:21.809Z,8.47
2022-11-19T05:04:21.789Z,8.49
2022-11-19T05:05:21.792Z,8.49
2022-11-19T05:06:21.760Z,8.49
2022-11-19T05:07:21.855Z,8.49
2022-11-19T05:08:21.749Z,8.50
2022-11-19T05:09:22.116Z,8.52
2022-11-19T05:10:21.743Z,8.50
2022-11-19T05:11:21.711Z,8.50
2022-11-19T05:12:21.721Z,8.50
2022-11-19T05:13:21.689Z,8.50
2022-11-19T05:14:23.778Z,8.52
2022-11-19T05:15:22.680Z,8.52
2022-11-19T05:16:21.675Z,8.52
2022-11-19T05:17:21.642Z,8.50
2022-11-19T05:18:21.631Z,8.52
2022-11-19T05:19:21.901Z,8.50
2022-11-19T05:20:21.622Z,8.50
2022-11-19T05:21:21.633Z,8.49
2022-11-19T05:22:21.601Z,8.49
2022-11-19T05:23:21.583Z,8.47
2022-11-19T05:24:21.565Z,8.46
2022-11-19T05:25:21.575Z,8.46
2022-11-19T05:26:21.543Z,8.45
2022-11-19T05:27:21.549Z,8.46
2022-11-19T05:28:32.779Z,8.45
2022-11-19T05:29:22.535Z,8.45
2022-11-19T05:30:21.521Z,8.43
2022-11-19T05:31:21.523Z,8.43
2022-11-19T05:32:21.481Z,8.43
2022-11-19T05:33:21.488Z,8.43
2022-11-19T05:34:21.485Z,8.42
2022-11-19T05:35:21.472Z,8.43
2022-11-19T05:36:21.442Z,8.45
2022-11-19T05:37:21.445Z,8.45
2022-11-19T05:38:21.433Z,8.46
2022-11-19T05:39:22.371Z,8.45
2022-11-19T05:40:21.424Z,8.46
2022-11-19T05:41:21.393Z,8.46
2022-11-19T05:42:21.384Z,8.45
2022-11-19T05:43:21.385Z,8.46
2022-11-19T05:44:21.373Z,8.47
2022-11-19T05:45:21.364Z,8.50
2022-11-19T05:46:21.355Z,8.52
2022-11-19T05:47:21.344Z,8.52
2022-11-19T05:48:21.313Z,8.52
2022-11-19T05:49:21.623Z,8.55
2022-11-19T05:50:21.296Z,8.55
2022-11-19T05:51:21.295Z,8.54
2022-11-19T05:52:21.283Z,8.57
2022-11-19T05:53:21.276Z,8.58
2022-11-19T05:54:21.265Z,8.58
2022-11-19T05:55:21.265Z,8.58
2022-11-19T05:56:21.256Z,8.58
2022-11-19T05:57:21.305Z,8.58
2022-11-19T05:58:21.229Z,8.57
2022-11-19T05:59:21.715Z,8.57
2022-11-19T06:00:21.214Z,8.55
2022-11-19T06:01:21.187Z,8.54
2022-11-19T06:02:21.312Z,8.52
2022-11-19T06:03:21.169Z,8.52
2022-11-19T06:04:21.138Z,8.52
2022-11-19T06:05:21.147Z,8.50
2022-11-19T06:06:21.169Z,8.50
2022-11-19T06:07:21.200Z,8.46
2022-11-19T06:08:21.098Z,8.46
2022-11-19T06:09:21.577Z,8.45
2022-11-19T06:10:21.085Z,8.45
2022-11-19T06:11:21.085Z,8.43
2022-11-19T06:12:21.108Z,8.40
2022-11-19T06:13:21.058Z,8.43
2022-11-19T06:14:21.037Z,8.43
2022-11-19T06:15:21.037Z,8.45
2022-11-19T06:16:21.026Z,8.43
2022-11-19T06:17:21.006Z,8.43
2022-11-19T06:18:20.991Z,8.43
2022-11-19T06:19:21.161Z,8.43
2022-11-19T06:20:20.979Z,8.43
2022-11-19T06:21:20.990Z,8.42
2022-11-19T06:22:20.949Z,8.42
2022-11-19T06:23:20.968Z,8.40
2022-11-19T06:24:20.928Z,8.40
2022-11-19T06:25:20.916Z,8.40
2022-11-19T06:26:20.939Z,8.40
2022-11-19T06:27:20.908Z,8.37
2022-11-19T06:28:20.908Z,8.37
2022-11-19T06:29:21.312Z,8.37
2022-11-19T06:30:20.935Z,8.36
2022-11-19T06:31:20.879Z,8.37
2022-11-19T06:32:20.860Z,8.36
2022-11-19T06:33:20.860Z,8.37
2022-11-19T06:34:20.831Z,8.34
2022-11-19T06:35:20.829Z,8.34
2022-11-19T06:36:20.804Z,8.32
2022-11-19T06:37:20.792Z,8.32
2022-11-19T06:38:20.810Z,8.34
2022-11-19T06:39:21.216Z,8.34
2022-11-19T06:40:20.779Z,8.34
2022-11-19T06:41:20.792Z,8.36
2022-11-19T06:42:20.781Z,8.36
2022-11-19T06:43:20.733Z,8.37
2022-11-19T06:44:20.739Z,8.42
2022-11-19T06:45:20.776Z,8.40
2022-11-19T06:46:20.700Z,8.43
2022-11-19T06:47:20.682Z,8.43
2022-11-19T06:48:20.692Z,8.45
2022-11-19T06:49:20.719Z,8.43
2022-11-19T06:50:20.671Z,8.45
2022-11-19T06:51:20.642Z,8.43
2022-11-19T06:52:20.632Z,8.42
2022-11-19T06:53:20.634Z,8.42
2022-11-19T06:54:20.661Z,8.39
2022-11-19T06:55:20.599Z,8.39
2022-11-19T06:56:20.601Z,8.37
2022-11-19T06:57:20.574Z,8.37
2022-11-19T06:58:20.570Z,8.37
2022-11-19T06:59:21.061Z,8.37
2022-11-19T07:00:20.581Z,8.39
2022-11-19T07:01:20.580Z,8.37
2022-11-19T07:02:21.681Z,8.36
2022-11-19T07:03:20.523Z,8.36
2022-11-19T07:04:20.523Z,8.34
2022-11-19T07:05:20.522Z,8.32
2022-11-19T07:06:20.494Z,8.32
2022-11-19T07:07:20.498Z,8.31
2022-11-19T07:08:20.510Z,8.31
2022-11-19T07:09:20.698Z,8.31
2022-11-19T07:10:20.464Z,8.31
2022-11-19T07:11:20.444Z,8.31
2022-11-19T07:12:20.425Z,8.29
2022-11-19T07:13:20.425Z,8.27
2022-11-19T07:14:20.466Z,8.27
2022-11-19T07:15:20.405Z,8.25
2022-11-19T07:16:20.403Z,8.25
2022-11-19T07:17:20.365Z,8.25
2022-11-19T07:18:20.383Z,8.24
2022-11-19T07:19:20.659Z,8.22
2022-11-19T07:20:20.375Z,8.22
2022-11-19T07:21:20.344Z,8.20
2022-11-19T07:22:20.335Z,8.18
2022-11-19T07:23:20.321Z,8.18
2022-11-19T07:24:20.306Z,8.20
2022-11-19T07:25:20.333Z,8.17
2022-11-19T07:26:20.296Z,8.18
2022-11-19T07:27:20.264Z,8.17
2022-11-19T07:28:20.277Z,8.18
2022-11-19T07:29:20.400Z,8.18
2022-11-19T07:30:20.237Z,8.17
2022-11-19T07:31:20.930Z,8.20
2022-11-19T07:32:20.276Z,8.21
2022-11-19T07:33:21.224Z,8.24
2022-11-19T07:34:20.247Z,8.24
2022-11-19T07:35:21.496Z,8.28
2022-11-19T07:36:20.248Z,8.34
2022-11-19T07:37:20.217Z,8.37
2022-11-19T07:38:20.189Z,8.42
2022-11-19T07:39:21.034Z,8.47
2022-11-19T07:40:20.167Z,8.52
2022-11-19T07:41:20.745Z,8.57
2022-11-19T07:42:20.148Z,8.60
2022-11-19T07:43:20.107Z,8.63
2022-11-19T07:44:20.137Z,8.65
2022-11-19T07:45:20.092Z,8.68
2022-11-19T07:46:20.069Z,8.73
2022-11-19T07:47:20.048Z,8.76
2022-11-19T07:48:20.049Z,8.76
2022-11-19T07:49:20.276Z,8.79
2022-11-19T07:50:20.038Z,8.83
2022-11-19T07:51:20.010Z,8.89
2022-11-19T07:52:19.999Z,8.94
2022-11-19T07:53:19.999Z,8.98
2022-11-19T07:54:20.010Z,9.03
2022-11-19T07:55:19.979Z,9.03
2022-11-19T07:56:19.964Z,9.03
2022-11-19T07:57:19.966Z,9.10
2022-11-19T07:58:19.967Z,9.13
2022-11-19T07:59:20.124Z,9.15
2022-11-19T08:00:19.960Z,9.16
2022-11-19T08:01:20.078Z,9.19
2022-11-19T08:02:19.900Z,9.20
2022-11-19T08:03:19.890Z,9.22
2022-11-19T08:04:19.891Z,9.24
2022-11-19T08:05:19.904Z,9.26
2022-11-19T08:06:19.861Z,9.27
2022-11-19T08:07:19.899Z,9.24
2022-11-19T08:08:19.842Z,9.26
2022-11-19T08:09:19.981Z,9.26
2022-11-19T08:10:19.812Z,9.26
2022-11-19T08:11:19.836Z,9.24
2022-11-19T08:12:20.820Z,9.23
2022-11-19T08:13:19.801Z,9.22
2022-11-19T08:14:20.111Z,9.22
2022-11-19T08:15:19.752Z,9.20
2022-11-19T08:16:20.493Z,9.22
2022-11-19T08:17:19.760Z,9.23
2022-11-19T08:18:20.462Z,9.23
2022-11-19T08:19:20.133Z,9.23
2022-11-19T08:20:20.433Z,9.24
2022-11-19T08:21:19.733Z,9.23
2022-11-19T08:22:19.782Z,9.22
2022-11-19T08:23:19.692Z,9.17
2022-11-19T08:24:20.909Z,9.15
2022-11-19T08:25:19.662Z,9.15
2022-11-19T08:26:20.634Z,9.15
2022-11-19T08:27:19.651Z,9.15
2022-11-19T08:28:19.690Z,9.15
2022-11-19T08:29:19.643Z,9.10
2022-11-19T08:30:19.632Z,9.06
2022-11-19T08:31:19.613Z,9.06
2022-11-19T08:32:19.593Z,9.04
2022-11-19T08:33:19.574Z,9.01
2022-11-19T08:34:19.951Z,9.00
2022-11-19T08:35:19.555Z,9.01
2022-11-19T08:36:19.538Z,9.01
2022-11-19T08:37:19.524Z,9.03
2022-11-19T08:38:19.523Z,9.06
2022-11-19T08:39:19.516Z,9.06
2022-11-19T08:40:19.505Z,9.10
2022-11-19T08:41:19.496Z,9.13
2022-11-19T08:42:19.483Z,9.20
2022-11-19T08:43:19.473Z,9.23
2022-11-19T08:44:19.870Z,9.26
2022-11-19T08:45:20.908Z,9.31
2022-11-19T08:46:19.435Z,9.35
2022-11-19T08:47:19.416Z,9.38
2022-11-19T08:48:19.416Z,9.42
2022-11-19T08:49:19.415Z,9.48
2022-11-19T08:50:19.483Z,9.49
2022-11-19T08:51:19.366Z,9.53
2022-11-19T08:52:19.376Z,9.56
2022-11-19T08:53:19.365Z,9.59
2022-11-19T08:54:19.758Z,9.62
2022-11-19T08:55:19.357Z,9.67
2022-11-19T08:56:19.336Z,9.73
2022-11-19T08:57:19.306Z,9.77
2022-11-19T08:58:19.307Z,9.83
2022-11-19T08:59:19.421Z,9.86
2022-11-19T09:00:19.556Z,9.91
2022-11-19T09:01:19.327Z,9.93
2022-11-19T09:02:19.258Z,9.95
2022-11-19T09:03:19.249Z,9.96
2022-11-19T09:04:19.494Z,10.02
2022-11-19T09:05:19.242Z,10.06
2022-11-19T09:06:19.258Z,10.07
2022-11-19T09:07:19.305Z,10.07
2022-11-19T09:08:19.189Z,10.10
2022-11-19T09:09:19.188Z,10.11
2022-11-19T09:10:19.177Z,10.11
2022-11-19T09:11:19.178Z,10.09
2022-11-19T09:12:19.147Z,10.06
2022-11-19T09:13:19.160Z,9.99
2022-11-19T09:14:19.470Z,10.01
2022-11-19T09:15:19.118Z,9.99
2022-11-19T09:16:19.138Z,9.99
2022-11-19T09:17:19.099Z,9.98
2022-11-19T09:18:19.109Z,9.99
2022-11-19T09:19:19.068Z,10.04
2022-11-19T09:20:19.088Z,10.07
2022-11-19T09:21:19.061Z,10.11
2022-11-19T09:22:19.040Z,10.16
2022-11-19T09:23:19.040Z,10.17
2022-11-19T09:24:19.468Z,10.25
2022-11-19T09:25:19.739Z,10.28
2022-11-19T09:26:19.014Z,10.32
2022-11-19T09:27:19.720Z,10.32
2022-11-19T09:28:19.050Z,10.32
2022-11-19T09:29:19.704Z,10.32
2022-11-19T09:30:18.991Z,10.34
2022-11-19T09:31:19.352Z,10.34
2022-11-19T09:32:25.055Z,10.32
2022-11-19T09:33:20.941Z,10.35
2022-11-19T09:34:19.262Z,10.36
2022-11-19T09:35:19.021Z,10.39
2022-11-19T09:36:18.922Z,10.44
2022-11-19T09:37:19.691Z,10.49
2022-11-19T09:38:18.939Z,10.52
2022-11-19T09:39:18.943Z,10.54
2022-11-19T09:40:18.882Z,10.55
2022-11-19T09:41:19.569Z,10.55
2022-11-19T09:42:18.864Z,10.51
2022-11-19T09:43:19.533Z,10.49
2022-11-19T09:44:19.163Z,10.43
2022-11-19T09:45:18.792Z,10.39
2022-11-19T09:46:18.803Z,10.39
2022-11-19T09:47:18.782Z,10.36
2022-11-19T09:48:18.767Z,10.34
2022-11-19T09:49:18.763Z,10.34
2022-11-19T09:50:18.764Z,10.32
2022-11-19T09:51:18.743Z,10.31
2022-11-19T09:52:18.732Z,10.29
2022-11-19T09:53:18.716Z,10.28
2022-11-19T09:54:19.142Z,10.28
2022-11-19T09:55:18.700Z,10.26
2022-11-19T09:56:18.695Z,10.28
2022-11-19T09:57:18.684Z,10.25
2022-11-19T09:58:18.684Z,10.25
2022-11-19T09:59:18.645Z,10.22
2022-11-19T10:00:18.656Z,10.20
2022-11-19T10:01:18.624Z,10.20
2022-11-19T10:02:18.624Z,10.20
2022-11-19T10:03:18.727Z,10.20
2022-11-19T10:04:18.856Z,10.20
2022-11-19T10:05:18.585Z,10.20
2022-11-19T10:06:18.574Z,10.18
2022-11-19T10:07:18.629Z,10.18
2022-11-19T10:08:18.587Z,10.18
2022-11-19T10:09:18.547Z,10.20
2022-11-19T10:10:18.546Z,10.24
2022-11-19T10:11:18.518Z,10.25
2022-11-19T10:12:18.518Z,10.26
2022-11-19T10:13:18.496Z,10.28
2022-11-19T10:14:18.828Z,10.29
2022-11-19T10:15:18.500Z,10.29
2022-11-19T10:16:18.466Z,10.29
2022-11-19T10:17:18.497Z,10.29
2022-11-19T10:18:18.457Z,10.31
2022-11-19T10:19:18.475Z,10.28
2022-11-19T10:20:18.438Z,10.25
2022-11-19T10:21:18.436Z,10.28
2022-11-19T10:22:18.435Z,10.28
2022-11-19T10:23:18.409Z,10.29
2022-11-19T10:24:18.914Z,10.31
2022-11-19T10:25:18.367Z,10.34
2022-11-19T10:26:18.380Z,10.38
2022-11-19T10:27:18.359Z,10.39
2022-11-19T10:28:18.369Z,10.44
2022-11-19T10:29:18.500Z,10.49
2022-11-19T10:30:18.356Z,10.49
2022-11-19T10:31:18.358Z,10.47
2022-11-19T10:32:18.319Z,10.49
2022-11-19T10:33:18.280Z,10.49
2022-11-19T10:34:18.328Z,10.51
2022-11-19T10:35:18.277Z,10.55
2022-11-19T10:36:18.290Z,10.58
2022-11-19T10:37:18.249Z,10.58
2022-11-19T10:38:18.237Z,10.60
2022-11-19T10:39:19.407Z,10.62
2022-11-19T10:40:18.304Z,10.63
2022-11-19T10:41:18.218Z,10.66
2022-11-19T10:42:18.192Z,10.69
2022-11-19T10:43:22.993Z,10.68
2022-11-19T10:44:19.241Z,10.66
2022-11-19T10:45:18.192Z,10.65
2022-11-19T10:46:18.151Z,10.63
2022-11-19T10:47:18.153Z,10.63
2022-11-19T10:48:18.121Z,10.65
2022-11-19T10:49:18.496Z,10.62
2022-11-19T10:50:18.164Z,10.62
2022-11-19T10:51:18.092Z,10.57
2022-11-19T10:52:18.092Z,10.58
2022-11-19T10:53:18.093Z,10.60
2022-11-19T10:54:18.072Z,10.55
2022-11-19T10:55:18.052Z,10.52
2022-11-19T10:56:18.053Z,10.49
2022-11-19T10:57:18.043Z,10.49
2022-11-19T10:58:18.025Z,10.55
2022-11-19T10:59:18.541Z,10.58
2022-11-19T11:00:18.003Z,10.63
2022-11-19T11:01:18.041Z,10.68
2022-11-19T11:02:17.976Z,10.68
2022-11-19T11:03:17.983Z,10.66
2022-11-19T11:04:17.966Z,10.63
2022-11-19T11:05:18.022Z,10.62
2022-11-19T11:06:17.975Z,10.60
2022-11-19T11:07:17.965Z,10.58
2022-11-19T11:08:17.914Z,10.60
2022-11-19T11:09:18.146Z,10.55
2022-11-19T11:10:17.903Z,10.51
2022-11-19T11:11:17.895Z,10.51
2022-11-19T11:12:17.886Z,10.47
2022-11-19T11:13:17.863Z,10.46
2022-11-19T11:14:17.866Z,10.44
2022-11-19T11:15:17.907Z,10.39
2022-11-19T11:16:17.826Z,10.43
2022-11-19T11:17:17.837Z,10.43
2022-11-19T11:18:17.835Z,10.43
2022-11-19T11:19:18.164Z,10.39
2022-11-19T11:20:17.780Z,10.36
2022-11-19T11:21:17.786Z,10.35
2022-11-19T11:22:17.796Z,10.36
2022-11-19T11:23:17.757Z,10.36
2022-11-19T11:24:17.759Z,10.35
2022-11-19T11:25:17.745Z,10.38
2022-11-19T11:26:17.726Z,10.44
2022-11-19T11:27:17.718Z,10.47
2022-11-19T11:28:17.716Z,10.47
2022-11-19T11:29:17.951Z,10.49
2022-11-19T11:30:17.678Z,10.51
2022-11-19T11:31:17.667Z,10.47
2022-11-19T11:32:17.657Z,10.51
2022-11-19T11:33:17.667Z,10.55
2022-11-19T11:34:17.627Z,10.62
2022-11-19T11:35:17.626Z,10.72
2022-11-19T11:36:17.629Z,10.80
2022-11-19T11:37:17.598Z,10.83
2022-11-19T11:38:17.609Z,10.86
2022-11-19T11:39:18.093Z,10.88
2022-11-19T11:40:17.569Z,10.91
2022-11-19T11:42:03.480Z,10.98
2022-11-19T11:42:18.574Z,11.01
2022-11-19T11:43:17.551Z,10.99
2022-11-19T11:44:17.538Z,10.99
2022-11-19T11:45:17.530Z,11.01
2022-11-19T11:46:17.520Z,10.95
2022-11-19T11:47:17.501Z,10.87
2022-11-19T11:48:17.500Z,10.86
2022-11-19T11:49:17.501Z,10.80
2022-11-19T11:50:17.459Z,10.75
2022-11-19T11:51:17.451Z,10.69
2022-11-19T11:52:17.460Z,10.62
2022-11-19T11:53:17.431Z,10.60
2022-11-19T11:54:18.272Z,10.57
2022-11-19T11:55:17.672Z,10.57
2022-11-19T11:56:17.392Z,10.55
2022-11-19T11:57:17.404Z,10.54
2022-11-19T11:58:17.404Z,10.52
2022-11-19T11:59:17.859Z,10.51
2022-11-19T12:00:17.370Z,10.49
2022-11-19T12:01:17.362Z,10.46
2022-11-19T12:02:17.358Z,10.38
2022-11-19T12:03:17.341Z,10.34
2022-11-19T12:04:17.322Z,10.32
2022-11-19T12:05:17.380Z,10.28
2022-11-19T12:06:17.324Z,10.28
2022-11-19T12:07:17.353Z,10.22
2022-11-19T12:08:17.304Z,10.17
2022-11-19T12:09:17.607Z,10.17
2022-11-19T12:10:17.243Z,10.16
2022-11-19T12:11:17.255Z,10.16
2022-11-19T12:12:17.235Z,10.14
2022-11-19T12:13:17.234Z,10.13
2022-11-19T12:14:17.225Z,10.13
2022-11-19T12:15:17.239Z,10.11
2022-11-19T12:16:17.199Z,10.09
2022-11-19T12:17:17.190Z,10.09
2022-11-19T12:18:17.164Z,10.10
2022-11-19T12:19:17.343Z,10.10
2022-11-19T12:20:17.146Z,10.10
2022-11-19T12:21:17.147Z,10.09
2022-11-19T12:22:17.125Z,10.07
2022-11-19T12:23:17.116Z,10.11
2022-11-19T12:24:17.130Z,10.13
2022-11-19T12:25:17.150Z,10.13
2022-11-19T12:26:17.095Z,10.13
2022-11-19T12:27:17.088Z,10.13
2022-11-19T12:28:17.055Z,10.14
2022-11-19T12:29:17.376Z,10.14
2022-11-19T12:30:17.065Z,10.16
2022-11-19T12:31:17.027Z,10.17
2022-11-19T12:32:17.029Z,10.20
2022-11-19T12:33:17.013Z,10.20
2022-11-19T12:34:16.987Z,10.24
2022-11-19T12:35:17.041Z,10.28
2022-11-19T12:36:16.999Z,10.29
2022-11-19T12:37:17.031Z,10.26
2022-11-19T12:38:16.947Z,10.28
2022-11-19T12:39:17.093Z,10.29
2022-11-19T12:40:16.927Z,10.26
2022-11-19T12:41:16.961Z,10.24
2022-11-19T12:42:16.909Z,10.24
2022-11-19T12:43:16.919Z,10.25
2022-11-19T12:44:16.898Z,10.25
2022-11-19T12:45:16.921Z,10.24
2022-11-19T12:46:16.883Z,10.24
2022-11-19T12:47:16.870Z,10.24
2022-11-19T12:48:16.849Z,10.22
2022-11-19T12:49:17.025Z,10.22
2022-11-19T12:50:16.839Z,10.18
2022-11-19T12:51:16.829Z,10.20
2022-11-19T12:52:16.799Z,10.17
2022-11-19T12:53:16.795Z,10.18
2022-11-19T12:54:19.552Z,10.17
2022-11-19T12:55:17.789Z,10.18
2022-11-19T12:56:16.774Z,10.18
2022-11-19T12:57:16.750Z,10.22
2022-11-19T12:58:16.730Z,10.22
2022-11-19T12:59:16.742Z,10.18
2022-11-19T13:00:16.742Z,10.14
2022-11-19T13:01:16.804Z,10.13
2022-11-19T13:02:16.691Z,10.13
2022-11-19T13:03:16.691Z,10.11
2022-11-19T13:04:16.732Z,10.11
2022-11-19T13:05:16.762Z,10.11
2022-11-19T13:06:18.046Z,10.11
2022-11-19T13:07:16.674Z,10.07
2022-11-19T13:08:16.640Z,10.09
2022-11-19T13:09:16.656Z,10.06
2022-11-19T13:10:16.642Z,10.06
2022-11-19T13:11:16.611Z,10.02